Time;durP1;ratioP1;P1;durP2;ratioP2;P2;SDS_P1;SDS_P2;PMS_P1;PMS_P2;Temp;Humidity;BMP_temperature;BMP_pressure;BME280_temperature;BME280_humidity;BME280_pressure;Samples;Min_cycle;Max_cycle;Signal;HPM_P1;HPM_P2
2022/02/09 00:07:52;;;;;;;12.27;6.87;;;;;;;;;;10368526;28;20156;-59
2022/02/09 00:13:33;;;;;;;15.57;8.20;;;;;;;;;;10364987;28;20077;-59
2022/02/09 00:18:33;;;;;;;11.77;6.78;;;;;;;;;;10364614;28;20034;-60
2022/02/09 00:29:24;;;;;;;14.07;7.47;;;;;;;;;;10367951;28;20030;-60
2022/02/09 00:34:43;;;;;;;11.80;6.93;;;;;;;;;;10366612;28;20142;-60
2022/02/09 00:59:00;;;;;;;10.70;6.55;;;;;;;;;;10366185;28;20346;-62
2022/02/09 01:38:09;;;;;;;9.90;6.43;;;;;;;;;;10373762;28;19909;-60
2022/02/09 01:59:05;;;;;;;9.25;6.43;;;;;;;;;;10373467;28;20493;-59
2022/02/09 02:04:05;;;;;;;8.70;6.60;;;;;;;;;;10373066;28;20030;-59
2022/02/09 02:09:06;;;;;;;11.10;6.35;;;;;;;;;;10372788;28;20491;-59
2022/02/09 02:30:18;;;;;;;8.77;6.03;;;;;;;;;;10370556;28;20077;-59
2022/02/09 02:35:49;;;;;;;12.50;6.78;;;;;;;;;;10371061;28;20117;-60
2022/02/09 03:17:17;;;;;;;8.48;5.80;;;;;;;;;;10369938;28;20030;-59
2022/02/09 03:43:43;;;;;;;7.85;5.68;;;;;;;;;;10369528;28;20112;-59
2022/02/09 03:54:06;;;;;;;9.10;6.00;;;;;;;;;;10369171;28;20283;-59
2022/02/09 03:59:06;;;;;;;7.63;5.65;;;;;;;;;;10368990;28;20021;-59
2022/02/09 04:04:07;;;;;;;10.90;5.80;;;;;;;;;;10368482;28;20026;-59
2022/02/09 04:09:13;;;;;;;10.88;5.35;;;;;;;;;;10368318;28;20493;-60
2022/02/09 04:14:25;;;;;;;11.15;5.47;;;;;;;;;;10367224;28;20049;-60
2022/02/09 04:46:22;;;;;;;8.43;5.50;;;;;;;;;;10359857;28;20124;-60
2022/02/09 04:51:37;;;;;;;7.03;4.80;;;;;;;;;;10372765;28;20041;-60
2022/02/09 05:28:15;;;;;;;6.78;4.93;;;;;;;;;;10375539;28;20133;-59
2022/02/09 05:33:16;;;;;;;9.95;5.18;;;;;;;;;;10374397;28;20537;-61
2022/02/09 05:38:17;;;;;;;6.32;4.90;;;;;;;;;;10367904;28;20025;-59
2022/02/09 05:43:18;;;;;;;7.38;4.68;;;;;;;;;;10373672;28;20056;-59
2022/02/09 05:53:36;;;;;;;6.82;5.22;;;;;;;;;;10373556;28;20470;-60
2022/02/09 05:58:46;;;;;;;6.10;4.65;;;;;;;;;;10373655;28;20030;-60
2022/02/09 06:03:47;;;;;;;7.28;4.88;;;;;;;;;;10373508;28;20483;-59
2022/02/09 06:08:47;;;;;;;6.30;4.50;;;;;;;;;;10372354;28;20046;-60
2022/02/09 06:14:41;;;;;;;6.63;4.60;;;;;;;;;;10372667;28;20141;-60
2022/02/09 06:24:27;;;;;;;7.10;4.75;;;;;;;;;;10372278;28;20109;-60
2022/02/09 06:29:27;;;;;;;7.85;5.47;;;;;;;;;;10371729;28;20038;-60
2022/02/09 06:34:28;;;;;;;6.20;4.78;;;;;;;;;;10372177;28;20033;-59
2022/02/09 06:39:29;;;;;;;6.33;4.70;;;;;;;;;;10364941;28;20034;-60
2022/02/09 06:44:31;;;;;;;6.22;4.65;;;;;;;;;;10371051;28;20788;-61
2022/02/09 06:49:33;;;;;;;8.43;4.78;;;;;;;;;;10371152;28;20030;-60
2022/02/09 06:54:43;;;;;;;7.55;4.18;;;;;;;;;;10371165;28;20026;-59
2022/02/09 06:59:44;;;;;;;9.45;4.80;;;;;;;;;;10369073;28;20022;-59
2022/02/09 07:04:49;;;;;;;9.83;4.60;;;;;;;;;;10369767;28;20021;-59
2022/02/09 07:09:49;;;;;;;12.25;4.78;;;;;;;;;;10369889;28;20431;-60
2022/02/09 07:14:50;;;;;;;12.77;5.40;;;;;;;;;;10368924;28;20084;-65
2022/02/09 07:20:15;;;;;;;7.07;4.78;;;;;;;;;;10369468;28;20493;-65
2022/02/09 07:25:16;;;;;;;10.25;4.85;;;;;;;;;;10368761;28;20416;-61
2022/02/09 07:30:22;;;;;;;16.48;5.35;;;;;;;;;;10368748;28;20022;-60
2022/02/09 07:35:23;;;;;;;15.40;5.80;;;;;;;;;;10368025;28;20097;-59
2022/02/09 07:40:24;;;;;;;16.58;6.45;;;;;;;;;;10364842;28;20018;-63
2022/02/09 07:55:28;;;;;;;16.80;7.25;;;;;;;;;;10367333;28;20033;-59
2022/02/09 08:00:29;;;;;;;15.93;7.37;;;;;;;;;;10362413;28;20488;-64
2022/02/09 08:05:29;;;;;;;13.23;6.47;;;;;;;;;;10364923;28;20846;-59
2022/02/09 08:10:54;;;;;;;9.70;6.50;;;;;;;;;;10368063;28;20025;-59
2022/02/09 08:36:43;;;;;;;10.15;6.57;;;;;;;;;;10366171;28;20049;-63
2022/02/09 08:41:43;;;;;;;10.25;6.28;;;;;;;;;;10366474;28;20022;-59
2022/02/09 08:46:44;;;;;;;11.32;6.63;;;;;;;;;;10359839;28;20117;-61
2022/02/09 08:51:44;;;;;;;9.52;6.50;;;;;;;;;;10366758;28;20112;-60
2022/02/09 08:56:45;;;;;;;11.77;7.00;;;;;;;;;;10361686;28;20449;-60
2022/02/09 09:01:52;;;;;;;11.27;6.90;;;;;;;;;;10365304;28;20026;-61
2022/02/09 09:06:57;;;;;;;12.13;6.80;;;;;;;;;;10366530;28;20461;-59
2022/02/09 10:37:02;;;;;;;12.38;6.45;;;;;;;;;;10371312;28;20033;-59
2022/02/09 10:47:34;;;;;;;9.50;6.05;;;;;;;;;;10370857;28;20501;-60
2022/02/09 10:52:41;;;;;;;10.98;5.95;;;;;;;;;;10367096;28;20037;-60
2022/02/09 10:57:41;;;;;;;12.20;6.43;;;;;;;;;;10367689;28;20057;-59
2022/02/09 11:02:42;;;;;;;13.38;6.40;;;;;;;;;;10369247;28;20056;-60
2022/02/09 11:07:44;;;;;;;13.27;6.27;;;;;;;;;;10368223;28;20484;-59
2022/02/09 11:12:45;;;;;;;7.38;5.60;;;;;;;;;;10369210;28;20464;-59
2022/02/09 11:17:47;;;;;;;8.65;5.43;;;;;;;;;;10369418;28;20126;-59
2022/02/09 11:23:08;;;;;;;10.05;5.90;;;;;;;;;;10369470;28;20037;-60
2022/02/09 11:28:34;;;;;;;8.73;5.53;;;;;;;;;;10282959;28;20035;-62
2022/02/09 11:34:00;;;;;;;9.18;5.45;;;;;;;;;;10282118;28;20137;-59
2022/02/09 11:39:14;;;;;;;10.00;5.82;;;;;;;;;;10282018;28;20038;-60
2022/02/09 11:44:50;;;;;;;9.93;5.78;;;;;;;;;;10282475;28;20471;-60
2022/02/09 12:00:52;;;;;;;11.37;5.13;;;;;;;;;;10281995;28;20602;-60
2022/02/09 12:11:40;;;;;;;6.90;4.90;;;;;;;;;;10367097;28;20026;-60
2022/02/09 12:22:12;;;;;;;9.27;5.20;;;;;;;;;;10367896;28;20026;-60
2022/02/09 12:27:09;;;;;;;8.27;5.25;;;;;;;;;;10367168;28;20041;-59
2022/02/09 12:32:15;;;;;;;6.55;5.00;;;;;;;;;;10366654;28;20088;-59
2022/02/09 12:37:16;;;;;;;11.85;5.50;;;;;;;;;;10366733;28;20377;-59
2022/02/09 12:42:19;;;;;;;8.45;5.47;;;;;;;;;;10367092;28;20033;-59
2022/02/09 12:47:19;;;;;;;6.80;4.95;;;;;;;;;;10367099;28;20060;-60
2022/02/09 12:52:25;;;;;;;8.60;5.27;;;;;;;;;;10367878;28;20487;-60
2022/02/09 12:57:38;;;;;;;8.50;5.28;;;;;;;;;;10367392;28;20042;-59
2022/02/09 13:02:45;;;;;;;6.93;4.90;;;;;;;;;;10367499;28;20026;-59
2022/02/09 13:07:58;;;;;;;7.90;5.28;;;;;;;;;;10371989;28;20121;-59
2022/02/09 13:13:06;;;;;;;10.70;4.97;;;;;;;;;;10370235;28;20081;-60
2022/02/09 13:23:40;;;;;;;10.80;5.13;;;;;;;;;;10374617;28;20034;-60
2022/02/09 14:11:30;;;;;;;6.10;4.45;;;;;;;;;;10369884;28;20037;-59
2022/02/09 14:16:55;;;;;;;7.70;5.18;;;;;;;;;;10371845;28;20334;-59
2022/02/09 14:33:50;;;;;;;;;;;;;;;;;;10368547;28;20109;-59
2022/02/09 14:49:31;;;;;;;6.88;3.97;;;;;;;;;;10368337;28;19913;-60
2022/02/09 14:59:05;;;;;;;6.80;4.32;;;;;;;;;;10369254;28;20022;-59
2022/02/09 15:09:13;;;;;;;8.63;4.07;;;;;;;;;;10369384;28;20117;-60
2022/02/09 15:14:16;;;;;;;9.07;4.13;;;;;;;;;;10367755;28;20447;-60
2022/02/09 15:24:24;;;;;;;6.68;3.95;;;;;;;;;;10366349;28;20129;-59
2022/02/09 15:29:25;;;;;;;10.73;4.05;;;;;;;;;;10364078;28;20249;-59
2022/02/09 15:34:33;;;;;;;7.35;4.00;;;;;;;;;;10367465;28;20265;-59
2022/02/09 15:39:40;;;;;;;7.97;4.13;;;;;;;;;;10367272;28;20026;-60
2022/02/09 16:06:25;;;;;;;5.85;3.60;;;;;;;;;;10367691;28;19914;-59
2022/02/09 16:16:44;;;;;;;4.55;3.85;;;;;;;;;;10367369;28;20046;-59
2022/02/09 16:22:09;;;;;;;8.43;3.60;;;;;;;;;;10365107;28;20052;-59
2022/02/09 16:48:25;;;;;;;7.38;4.07;;;;;;;;;;10376169;28;20041;-64
2022/02/09 17:19:21;;;;;;;9.23;3.80;;;;;;;;;;10375037;28;20026;-60
2022/02/09 17:24:21;;;;;;;6.13;3.47;;;;;;;;;;10375039;28;20026;-59
2022/02/09 17:29:30;;;;;;;4.93;3.30;;;;;;;;;;10371277;28;20486;-59
2022/02/09 18:00:43;;;;;;;8.63;4.38;;;;;;;;;;10373043;28;20470;-59
2022/02/09 18:10:57;;;;;;;8.23;4.40;;;;;;;;;;10372739;28;20513;-63
2022/02/09 18:25:08;;;;;;;11.10;4.47;;;;;;;;;;10371498;28;20499;-61
2022/02/09 18:32:16;;;;;;;9.25;5.05;;;;;;;;;;10372031;28;20144;-62
2022/02/09 19:03:57;;;;;;;10.73;6.35;;;;;;;;;;10369083;28;20394;-62
2022/02/09 19:14:18;;;;;;;31.47;9.20;;;;;;;;;;10370201;28;20049;-60
2022/02/09 19:19:50;;;;;;;20.35;7.90;;;;;;;;;;10369576;28;20030;-60
2022/02/09 19:41:04;;;;;;;15.80;8.20;;;;;;;;;;10369450;28;20485;-61
2022/02/09 19:47:09;;;;;;;23.27;9.15;;;;;;;;;;10366275;28;20117;-61
2022/02/09 19:56:46;;;;;;;17.67;7.90;;;;;;;;;;10365239;28;20033;-59
2022/02/09 20:01:47;;;;;;;18.43;7.47;;;;;;;;;;10367305;28;20536;-62
2022/02/09 20:06:47;;;;;;;16.67;7.90;;;;;;;;;;10368189;28;20033;-63
2022/02/09 20:11:48;;;;;;;13.55;7.03;;;;;;;;;;10367941;28;20026;-63
2022/02/09 20:16:48;;;;;;;18.23;8.17;;;;;;;;;;10366100;28;20410;-61
2022/02/09 20:21:49;;;;;;;16.40;7.43;;;;;;;;;;10365849;28;20443;-62
2022/02/09 20:26:52;;;;;;;11.73;6.80;;;;;;;;;;10366071;28;20257;-62
2022/02/09 20:32:07;;;;;;;13.95;7.65;;;;;;;;;;10366681;28;20032;-63
2022/02/09 20:37:09;;;;;;;15.07;6.47;;;;;;;;;;10365719;28;20598;-62
2022/02/09 20:42:15;;;;;;;14.75;7.05;;;;;;;;;;10366029;28;20026;-59
2022/02/09 20:47:16;;;;;;;12.85;6.88;;;;;;;;;;10367939;28;20033;-60
2022/02/09 20:52:16;;;;;;;15.70;7.47;;;;;;;;;;10364540;28;20033;-60
2022/02/09 20:57:16;;;;;;;15.10;6.55;;;;;;;;;;10364343;28;20463;-60
2022/02/09 21:02:32;;;;;;;17.03;7.23;;;;;;;;;;10367818;28;20026;-61
2022/02/09 21:07:43;;;;;;;15.45;7.35;;;;;;;;;;10368180;28;20455;-60
2022/02/09 21:12:52;;;;;;;18.30;6.88;;;;;;;;;;10367647;28;20062;-61
2022/02/09 22:57:04;;;;;;;26.67;13.63;;;;;;;;;;10372252;28;20429;-60
2022/02/09 23:02:14;;;;;;;23.55;12.63;;;;;;;;;;10371967;28;20021;-60
2022/02/09 23:07:25;;;;;;;25.83;12.27;;;;;;;;;;10371587;28;20034;-59
2022/02/09 23:12:35;;;;;;;32.30;13.68;;;;;;;;;;10370089;28;20038;-59
